sensor_id;sensor_type;location;lat;lon;timestamp;temperature;humidity
3256;DHT22;1640;48.504;9.224;2023-05-07T00:00:39;13.90;99.90
3256;DHT22;1640;48.504;9.224;2023-05-07T00:03:09;13.90;99.90
3256;DHT22;1640;48.504;9.224;2023-05-07T00:05:39;13.80;99.90
3256;DHT22;1640;48.504;9.224;2023-05-07T00:08:07;13.80;99.90
3256;DHT22;1640;48.504;9.224;2023-05-07T00:10:35;13.70;99.90
3256;DHT22;1640;48.504;9.224;2023-05-07T00:13:02;13.70;99.90
3256;DHT22;1640;48.504;9.224;2023-05-07T00:15:30;13.70;99.90
3256;DHT22;1640;48.504;9.224;2023-05-07T00:17:57;13.60;99.90
3256;DHT22;1640;48.504;9.224;2023-05-07T00:20:27;13.60;99.90
3256;DHT22;1640;48.504;9.224;2023-05-07T00:22:54;13.60;99.90
3256;DHT22;1640;48.504;9.224;2023-05-07T00:25:22;13.70;99.90
3256;DHT22;1640;48.504;9.224;2023-05-07T00:27:49;13.70;99.90
3256;DHT22;1640;48.504;9.224;2023-05-07T00:30:17;13.70;99.90
3256;DHT22;1640;48.504;9.224;2023-05-07T00:32:44;13.70;99.90
3256;DHT22;1640;48.504;9.224;2023-05-07T00:35:13;13.80;99.90
3256;DHT22;1640;48.504;9.224;2023-05-07T00:37:42;13.80;99.90
3256;DHT22;1640;48.504;9.224;2023-05-07T00:40:10;13.80;99.90
3256;DHT22;1640;48.504;9.224;2023-05-07T00:42:37;13.80;99.90
3256;DHT22;1640;48.504;9.224;2023-05-07T00:45:06;13.80;99.90
3256;DHT22;1640;48.504;9.224;2023-05-07T00:47:33;13.80;99.90
3256;DHT22;1640;48.504;9.224;2023-05-07T00:50:01;13.80;99.90
3256;DHT22;1640;48.504;9.224;2023-05-07T00:52:29;13.80;99.90
3256;DHT22;1640;48.504;9.224;2023-05-07T00:55:00;13.70;99.90
3256;DHT22;1640;48.504;9.224;2023-05-07T00:57:34;13.60;99.90
3256;DHT22;1640;48.504;9.224;2023-05-07T01:00:04;13.60;99.90
3256;DHT22;1640;48.504;9.224;2023-05-07T01:02:32;13.60;99.90
3256;DHT22;1640;48.504;9.224;2023-05-07T01:05:00;13.50;99.90
3256;DHT22;1640;48.504;9.224;2023-05-07T01:07:29;13.50;99.90
3256;DHT22;1640;48.504;9.224;2023-05-07T01:09:59;13.50;99.90
3256;DHT22;1640;48.504;9.224;2023-05-07T01:12:28;13.50;99.90
3256;DHT22;1640;48.504;9.224;2023-05-07T01:14:55;13.50;99.90
3256;DHT22;1640;48.504;9.224;2023-05-07T01:17:23;13.50;99.90
3256;DHT22;1640;48.504;9.224;2023-05-07T01:19:51;13.40;99.90
3256;DHT22;1640;48.504;9.224;2023-05-07T01:22:28;13.40;99.90
3256;DHT22;1640;48.504;9.224;2023-05-07T01:24:58;13.40;99.90
3256;DHT22;1640;48.504;9.224;2023-05-07T01:27:27;13.40;99.90
3256;DHT22;1640;48.504;9.224;2023-05-07T01:29:55;13.30;99.90
3256;DHT22;1640;48.504;9.224;2023-05-07T01:32:29;13.30;99.90
3256;DHT22;1640;48.504;9.224;2023-05-07T01:34:58;13.20;99.90
3256;DHT22;1640;48.504;9.224;2023-05-07T01:37:29;13.20;99.90
3256;DHT22;1640;48.504;9.224;2023-05-07T01:39:57;13.20;99.90
3256;DHT22;1640;48.504;9.224;2023-05-07T01:42:24;13.10;99.90
3256;DHT22;1640;48.504;9.224;2023-05-07T01:44:52;13.10;99.90
3256;DHT22;1640;48.504;9.224;2023-05-07T01:47:20;13.10;99.90
3256;DHT22;1640;48.504;9.224;2023-05-07T01:49:48;13.10;99.90
3256;DHT22;1640;48.504;9.224;2023-05-07T01:52:17;13.10;99.90
3256;DHT22;1640;48.504;9.224;2023-05-07T01:54:46;13.10;99.90
3256;DHT22;1640;48.504;9.224;2023-05-07T01:57:13;13.10;99.90
3256;DHT22;1640;48.504;9.224;2023-05-07T01:59:41;13.00;99.90
3256;DHT22;1640;48.504;9.224;2023-05-07T02:02:08;13.00;99.90
3256;DHT22;1640;48.504;9.224;2023-05-07T02:04:36;12.90;99.90
3256;DHT22;1640;48.504;9.224;2023-05-07T02:07:03;12.90;99.90
3256;DHT22;1640;48.504;9.224;2023-05-07T02:09:31;12.90;99.90
3256;DHT22;1640;48.504;9.224;2023-05-07T02:12:00;12.90;99.90
3256;DHT22;1640;48.504;9.224;2023-05-07T02:14:27;12.80;99.90
3256;DHT22;1640;48.504;9.224;2023-05-07T02:16:55;12.80;99.90
3256;DHT22;1640;48.504;9.224;2023-05-07T02:19:22;12.80;99.90
3256;DHT22;1640;48.504;9.224;2023-05-07T02:21:50;12.70;99.90
3256;DHT22;1640;48.504;9.224;2023-05-07T02:24:19;12.70;99.90
3256;DHT22;1640;48.504;9.224;2023-05-07T02:26:46;12.70;99.90
3256;DHT22;1640;48.504;9.224;2023-05-07T02:29:15;12.70;99.90
3256;DHT22;1640;48.504;9.224;2023-05-07T02:31:43;12.60;99.90
3256;DHT22;1640;48.504;9.224;2023-05-07T02:34:10;12.60;99.90
3256;DHT22;1640;48.504;9.224;2023-05-07T02:36:38;12.60;99.90
3256;DHT22;1640;48.504;9.224;2023-05-07T02:39:06;12.50;99.90
3256;DHT22;1640;48.504;9.224;2023-05-07T02:41:33;12.50;99.90
3256;DHT22;1640;48.504;9.224;2023-05-07T02:44:01;12.50;99.90
3256;DHT22;1640;48.504;9.224;2023-05-07T02:46:30;12.40;99.90
3256;DHT22;1640;48.504;9.224;2023-05-07T02:48:57;12.40;99.90
3256;DHT22;1640;48.504;9.224;2023-05-07T02:51:26;12.30;99.90
3256;DHT22;1640;48.504;9.224;2023-05-07T02:53:54;12.30;99.90
3256;DHT22;1640;48.504;9.224;2023-05-07T02:56:21;12.30;99.90
3256;DHT22;1640;48.504;9.224;2023-05-07T02:58:49;12.20;99.90
3256;DHT22;1640;48.504;9.224;2023-05-07T03:01:16;12.20;99.90
3256;DHT22;1640;48.504;9.224;2023-05-07T03:03:45;12.10;99.90
3256;DHT22;1640;48.504;9.224;2023-05-07T03:06:12;12.10;99.90
3256;DHT22;1640;48.504;9.224;2023-05-07T03:08:40;12.00;99.90
3256;DHT22;1640;48.504;9.224;2023-05-07T03:11:07;12.00;99.90
3256;DHT22;1640;48.504;9.224;2023-05-07T03:13:35;12.00;99.90
3256;DHT22;1640;48.504;9.224;2023-05-07T03:16:02;11.90;99.90
3256;DHT22;1640;48.504;9.224;2023-05-07T03:18:30;11.90;99.90
3256;DHT22;1640;48.504;9.224;2023-05-07T03:20:59;11.80;99.90
3256;DHT22;1640;48.504;9.224;2023-05-07T03:23:26;11.80;99.90
3256;DHT22;1640;48.504;9.224;2023-05-07T03:25:54;11.80;99.90
3256;DHT22;1640;48.504;9.224;2023-05-07T03:28:21;11.70;99.90
3256;DHT22;1640;48.504;9.224;2023-05-07T03:30:49;11.70;99.90
3256;DHT22;1640;48.504;9.224;2023-05-07T03:33:16;11.70;99.90
3256;DHT22;1640;48.504;9.224;2023-05-07T03:35:44;11.60;99.90
3256;DHT22;1640;48.504;9.224;2023-05-07T03:38:13;11.60;99.90
3256;DHT22;1640;48.504;9.224;2023-05-07T03:40:40;11.60;99.90
3256;DHT22;1640;48.504;9.224;2023-05-07T03:43:08;11.60;99.90
3256;DHT22;1640;48.504;9.224;2023-05-07T03:45:35;11.60;99.90
3256;DHT22;1640;48.504;9.224;2023-05-07T03:48:03;11.50;99.90
3256;DHT22;1640;48.504;9.224;2023-05-07T03:50:31;11.50;99.90
3256;DHT22;1640;48.504;9.224;2023-05-07T03:52:58;11.50;99.90
3256;DHT22;1640;48.504;9.224;2023-05-07T03:55:27;11.50;99.90
3256;DHT22;1640;48.504;9.224;2023-05-07T03:57:55;11.50;99.90
3256;DHT22;1640;48.504;9.224;2023-05-07T04:00:23;11.50;99.90
3256;DHT22;1640;48.504;9.224;2023-05-07T04:02:50;11.50;99.90
3256;DHT22;1640;48.504;9.224;2023-05-07T04:05:18;11.50;99.90
3256;DHT22;1640;48.504;9.224;2023-05-07T04:07:45;11.40;99.90
3256;DHT22;1640;48.504;9.224;2023-05-07T04:10:13;11.40;99.90
3256;DHT22;1640;48.504;9.224;2023-05-07T04:12:42;11.40;99.90
3256;DHT22;1640;48.504;9.224;2023-05-07T04:15:10;11.40;99.90
3256;DHT22;1640;48.504;9.224;2023-05-07T04:17:37;11.40;99.90
3256;DHT22;1640;48.504;9.224;2023-05-07T04:20:06;11.40;99.90
3256;DHT22;1640;48.504;9.224;2023-05-07T04:22:34;11.40;99.90
3256;DHT22;1640;48.504;9.224;2023-05-07T04:25:02;11.50;99.90
3256;DHT22;1640;48.504;9.224;2023-05-07T04:27:30;11.50;99.90
3256;DHT22;1640;48.504;9.224;2023-05-07T04:29:59;11.50;99.90
3256;DHT22;1640;48.504;9.224;2023-05-07T04:32:27;11.50;99.90
3256;DHT22;1640;48.504;9.224;2023-05-07T04:34:55;11.50;99.90
3256;DHT22;1640;48.504;9.224;2023-05-07T04:37:22;11.60;99.90
3256;DHT22;1640;48.504;9.224;2023-05-07T04:39:50;11.60;99.90
3256;DHT22;1640;48.504;9.224;2023-05-07T04:42:18;11.60;99.90
3256;DHT22;1640;48.504;9.224;2023-05-07T04:44:45;11.70;99.90
3256;DHT22;1640;48.504;9.224;2023-05-07T04:47:14;11.70;99.90
3256;DHT22;1640;48.504;9.224;2023-05-07T04:49:42;11.80;99.90
3256;DHT22;1640;48.504;9.224;2023-05-07T04:52:09;11.80;99.90
3256;DHT22;1640;48.504;9.224;2023-05-07T04:54:37;11.80;99.90
3256;DHT22;1640;48.504;9.224;2023-05-07T04:57:04;11.90;99.90
3256;DHT22;1640;48.504;9.224;2023-05-07T04:59:32;11.90;99.90
3256;DHT22;1640;48.504;9.224;2023-05-07T05:02:00;12.00;99.90
3256;DHT22;1640;48.504;9.224;2023-05-07T05:04:28;12.00;99.90
3256;DHT22;1640;48.504;9.224;2023-05-07T05:06:56;12.10;99.90
3256;DHT22;1640;48.504;9.224;2023-05-07T05:09:23;12.20;99.90
3256;DHT22;1640;48.504;9.224;2023-05-07T05:11:51;12.30;99.90
3256;DHT22;1640;48.504;9.224;2023-05-07T05:14:18;12.30;99.90
3256;DHT22;1640;48.504;9.224;2023-05-07T05:16:46;12.40;99.90
3256;DHT22;1640;48.504;9.224;2023-05-07T05:19:13;12.50;99.90
3256;DHT22;1640;48.504;9.224;2023-05-07T05:21:42;12.50;99.90
3256;DHT22;1640;48.504;9.224;2023-05-07T05:24:10;12.60;99.90
3256;DHT22;1640;48.504;9.224;2023-05-07T05:26:37;12.70;99.90
3256;DHT22;1640;48.504;9.224;2023-05-07T05:29:05;12.90;99.90
3256;DHT22;1640;48.504;9.224;2023-05-07T05:31:33;13.00;99.90
3256;DHT22;1640;48.504;9.224;2023-05-07T05:34:02;13.10;99.90
3256;DHT22;1640;48.504;9.224;2023-05-07T05:36:29;13.10;99.90
3256;DHT22;1640;48.504;9.224;2023-05-07T05:38:59;13.30;99.90
3256;DHT22;1640;48.504;9.224;2023-05-07T05:41:26;13.50;99.90
3256;DHT22;1640;48.504;9.224;2023-05-07T05:43:54;13.60;99.90
3256;DHT22;1640;48.504;9.224;2023-05-07T05:46:22;13.80;99.90
3256;DHT22;1640;48.504;9.224;2023-05-07T05:48:49;13.90;99.90
3256;DHT22;1640;48.504;9.224;2023-05-07T05:51:17;14.10;99.90
3256;DHT22;1640;48.504;9.224;2023-05-07T05:53:44;14.20;99.90
3256;DHT22;1640;48.504;9.224;2023-05-07T05:56:13;14.20;99.90
3256;DHT22;1640;48.504;9.224;2023-05-07T05:58:41;14.30;99.90
3256;DHT22;1640;48.504;9.224;2023-05-07T06:01:08;14.40;99.90
3256;DHT22;1640;48.504;9.224;2023-05-07T06:03:37;14.50;99.90
3256;DHT22;1640;48.504;9.224;2023-05-07T06:06:05;14.60;99.90
3256;DHT22;1640;48.504;9.224;2023-05-07T06:08:32;14.70;99.90
3256;DHT22;1640;48.504;9.224;2023-05-07T06:11:01;14.70;99.90
3256;DHT22;1640;48.504;9.224;2023-05-07T06:13:30;14.90;99.90
3256;DHT22;1640;48.504;9.224;2023-05-07T06:15:58;15.10;99.90
3256;DHT22;1640;48.504;9.224;2023-05-07T06:18:25;15.30;0.80
3256;DHT22;1640;48.504;9.224;2023-05-07T06:20:53;15.50;4.90
3256;DHT22;1640;48.504;9.224;2023-05-07T06:23:20;15.60;11.20
3256;DHT22;1640;48.504;9.224;2023-05-07T06:25:49;15.50;14.10
3256;DHT22;1640;48.504;9.224;2023-05-07T06:28:17;15.50;11.20
3256;DHT22;1640;48.504;9.224;2023-05-07T06:30:46;15.50;12.30
3256;DHT22;1640;48.504;9.224;2023-05-07T06:33:15;15.70;13.70
3256;DHT22;1640;48.504;9.224;2023-05-07T06:35:43;15.80;18.80
3256;DHT22;1640;48.504;9.224;2023-05-07T06:38:11;15.70;15.30
3256;DHT22;1640;48.504;9.224;2023-05-07T06:40:38;15.80;13.00
3256;DHT22;1640;48.504;9.224;2023-05-07T06:43:06;16.10;17.00
3256;DHT22;1640;48.504;9.224;2023-05-07T06:45:33;16.10;18.90
3256;DHT22;1640;48.504;9.224;2023-05-07T06:48:02;16.20;17.70
3256;DHT22;1640;48.504;9.224;2023-05-07T06:50:30;16.30;16.30
3256;DHT22;1640;48.504;9.224;2023-05-07T06:52:57;16.50;26.60
3256;DHT22;1640;48.504;9.224;2023-05-07T06:55:25;16.50;31.60
3256;DHT22;1640;48.504;9.224;2023-05-07T06:57:52;16.60;29.80
3256;DHT22;1640;48.504;9.224;2023-05-07T07:00:20;16.70;29.50
3256;DHT22;1640;48.504;9.224;2023-05-07T07:02:48;16.70;27.80
3256;DHT22;1640;48.504;9.224;2023-05-07T07:05:17;16.80;31.90
3256;DHT22;1640;48.504;9.224;2023-05-07T07:07:44;17.10;34.30
3256;DHT22;1640;48.504;9.224;2023-05-07T07:10:18;17.20;42.50
3256;DHT22;1640;48.504;9.224;2023-05-07T07:12:46;17.10;41.50
3256;DHT22;1640;48.504;9.224;2023-05-07T07:15:14;17.20;43.80
3256;DHT22;1640;48.504;9.224;2023-05-07T07:17:42;17.10;38.00
3256;DHT22;1640;48.504;9.224;2023-05-07T07:20:10;17.30;41.30
3256;DHT22;1640;48.504;9.224;2023-05-07T07:22:39;17.30;46.10
3256;DHT22;1640;48.504;9.224;2023-05-07T07:25:07;17.40;47.00
3256;DHT22;1640;48.504;9.224;2023-05-07T07:27:34;17.50;41.90
3256;DHT22;1640;48.504;9.224;2023-05-07T07:30:02;17.60;42.80
3256;DHT22;1640;48.504;9.224;2023-05-07T07:32:30;17.80;49.30
3256;DHT22;1640;48.504;9.224;2023-05-07T07:34:58;18.10;51.80
3256;DHT22;1640;48.504;9.224;2023-05-07T07:37:26;18.20;53.70
3256;DHT22;1640;48.504;9.224;2023-05-07T07:39:55;18.20;56.60
3256;DHT22;1640;48.504;9.224;2023-05-07T07:42:22;18.20;53.70
3256;DHT22;1640;48.504;9.224;2023-05-07T07:44:50;18.30;54.40
3256;DHT22;1640;48.504;9.224;2023-05-07T07:47:17;18.60;56.10
3256;DHT22;1640;48.504;9.224;2023-05-07T07:49:45;18.80;60.30
3256;DHT22;1640;48.504;9.224;2023-05-07T07:52:12;19.20;62.60
3256;DHT22;1640;48.504;9.224;2023-05-07T07:54:40;19.30;63.60
3256;DHT22;1640;48.504;9.224;2023-05-07T07:57:09;19.30;63.40
3256;DHT22;1640;48.504;9.224;2023-05-07T07:59:36;19.30;64.50
3256;DHT22;1640;48.504;9.224;2023-05-07T08:02:04;19.50;64.30
3256;DHT22;1640;48.504;9.224;2023-05-07T08:04:31;19.50;64.70
3256;DHT22;1640;48.504;9.224;2023-05-07T08:06:59;19.50;66.00
3256;DHT22;1640;48.504;9.224;2023-05-07T08:09:26;19.50;65.20
3256;DHT22;1640;48.504;9.224;2023-05-07T08:11:54;19.50;64.00
3256;DHT22;1640;48.504;9.224;2023-05-07T08:14:23;19.50;62.30
3256;DHT22;1640;48.504;9.224;2023-05-07T08:16:51;19.40;64.50
3256;DHT22;1640;48.504;9.224;2023-05-07T08:19:19;19.50;64.60
3256;DHT22;1640;48.504;9.224;2023-05-07T08:21:47;19.40;64.50
3256;DHT22;1640;48.504;9.224;2023-05-07T08:24:15;19.40;63.00
3256;DHT22;1640;48.504;9.224;2023-05-07T08:26:43;19.40;62.30
3256;DHT22;1640;48.504;9.224;2023-05-07T08:29:11;19.40;61.30
3256;DHT22;1640;48.504;9.224;2023-05-07T08:31:40;19.30;58.00
3256;DHT22;1640;48.504;9.224;2023-05-07T08:34:07;19.20;54.30
3256;DHT22;1640;48.504;9.224;2023-05-07T08:36:35;19.20;56.20
3256;DHT22;1640;48.504;9.224;2023-05-07T08:39:02;19.10;54.40
3256;DHT22;1640;48.504;9.224;2023-05-07T08:41:30;19.00;53.70
3256;DHT22;1640;48.504;9.224;2023-05-07T08:43:59;19.00;52.70
3256;DHT22;1640;48.504;9.224;2023-05-07T08:46:29;18.90;52.70
3256;DHT22;1640;48.504;9.224;2023-05-07T08:48:59;18.70;48.00
3256;DHT22;1640;48.504;9.224;2023-05-07T08:51:27;18.60;43.30
3256;DHT22;1640;48.504;9.224;2023-05-07T08:53:54;18.50;39.80
3256;DHT22;1640;48.504;9.224;2023-05-07T08:56:22;18.60;43.20
3256;DHT22;1640;48.504;9.224;2023-05-07T08:58:49;18.70;43.00
3256;DHT22;1640;48.504;9.224;2023-05-07T09:01:17;18.80;42.30
3256;DHT22;1640;48.504;9.224;2023-05-07T09:03:45;18.70;40.30
3256;DHT22;1640;48.504;9.224;2023-05-07T09:06:15;18.80;37.60
3256;DHT22;1640;48.504;9.224;2023-05-07T09:08:49;19.00;42.30
3256;DHT22;1640;48.504;9.224;2023-05-07T09:11:20;19.20;43.00
3256;DHT22;1640;48.504;9.224;2023-05-07T09:13:48;19.40;51.70
3256;DHT22;1640;48.504;9.224;2023-05-07T09:16:16;19.60;54.70
3256;DHT22;1640;48.504;9.224;2023-05-07T09:18:44;19.70;54.70
3256;DHT22;1640;48.504;9.224;2023-05-07T09:21:17;19.90;58.00
3256;DHT22;1640;48.504;9.224;2023-05-07T09:23:44;20.10;60.90
3256;DHT22;1640;48.504;9.224;2023-05-07T09:26:12;20.10;58.40
3256;DHT22;1640;48.504;9.224;2023-05-07T09:28:40;20.20;60.40
3256;DHT22;1640;48.504;9.224;2023-05-07T09:31:09;20.40;60.60
3256;DHT22;1640;48.504;9.224;2023-05-07T09:33:37;20.50;63.70
3256;DHT22;1640;48.504;9.224;2023-05-07T09:36:05;20.50;63.30
3256;DHT22;1640;48.504;9.224;2023-05-07T09:38:35;20.80;64.20
3256;DHT22;1640;48.504;9.224;2023-05-07T09:41:04;21.10;63.90
3256;DHT22;1640;48.504;9.224;2023-05-07T09:43:32;21.20;65.30
3256;DHT22;1640;48.504;9.224;2023-05-07T09:46:07;21.30;67.20
3256;DHT22;1640;48.504;9.224;2023-05-07T09:48:37;21.40;67.00
3256;DHT22;1640;48.504;9.224;2023-05-07T09:51:14;21.60;66.00
3256;DHT22;1640;48.504;9.224;2023-05-07T09:53:45;21.90;67.80
3256;DHT22;1640;48.504;9.224;2023-05-07T09:56:14;22.00;68.00
3256;DHT22;1640;48.504;9.224;2023-05-07T09:58:43;21.90;67.50
3256;DHT22;1640;48.504;9.224;2023-05-07T10:01:12;22.00;67.80
3256;DHT22;1640;48.504;9.224;2023-05-07T10:03:41;22.00;67.60
3256;DHT22;1640;48.504;9.224;2023-05-07T10:06:09;22.10;69.60
3256;DHT22;1640;48.504;9.224;2023-05-07T10:08:37;22.30;70.20
3256;DHT22;1640;48.504;9.224;2023-05-07T10:11:06;22.50;70.00
3256;DHT22;1640;48.504;9.224;2023-05-07T10:13:34;22.70;70.20
3256;DHT22;1640;48.504;9.224;2023-05-07T10:16:03;22.90;70.20
3256;DHT22;1640;48.504;9.224;2023-05-07T10:18:31;23.30;69.60
3256;DHT22;1640;48.504;9.224;2023-05-07T10:21:08;23.50;68.80
3256;DHT22;1640;48.504;9.224;2023-05-07T10:23:36;23.70;67.90
3256;DHT22;1640;48.504;9.224;2023-05-07T10:26:07;23.70;66.60
3256;DHT22;1640;48.504;9.224;2023-05-07T10:28:38;23.70;67.00
3256;DHT22;1640;48.504;9.224;2023-05-07T10:31:18;23.80;66.30
3256;DHT22;1640;48.504;9.224;2023-05-07T10:33:51;23.80;64.70
3256;DHT22;1640;48.504;9.224;2023-05-07T10:36:20;24.00;64.30
3256;DHT22;1640;48.504;9.224;2023-05-07T10:38:48;24.10;64.50
3256;DHT22;1640;48.504;9.224;2023-05-07T10:41:18;24.30;67.50
3256;DHT22;1640;48.504;9.224;2023-05-07T10:43:47;24.50;63.20
3256;DHT22;1640;48.504;9.224;2023-05-07T10:46:16;24.40;61.70
3256;DHT22;1640;48.504;9.224;2023-05-07T10:49:08;24.50;60.60
3256;DHT22;1640;48.504;9.224;2023-05-07T10:51:37;24.30;58.40
3256;DHT22;1640;48.504;9.224;2023-05-07T10:54:22;24.30;59.30
3256;DHT22;1640;48.504;9.224;2023-05-07T10:56:51;24.40;61.00
3256;DHT22;1640;48.504;9.224;2023-05-07T10:59:35;24.50;61.00
3256;DHT22;1640;48.504;9.224;2023-05-07T11:02:07;24.70;58.20
3256;DHT22;1640;48.504;9.224;2023-05-07T11:04:37;24.90;53.90
3256;DHT22;1640;48.504;9.224;2023-05-07T11:07:25;25.00;54.80
3256;DHT22;1640;48.504;9.224;2023-05-07T11:10:04;24.70;57.80
3256;DHT22;1640;48.504;9.224;2023-05-07T11:12:50;24.30;59.70
3256;DHT22;1640;48.504;9.224;2023-05-07T11:15:39;24.30;61.70
3256;DHT22;1640;48.504;9.224;2023-05-07T11:18:08;24.30;60.10
3256;DHT22;1640;48.504;9.224;2023-05-07T11:20:52;24.40;60.00
3256;DHT22;1640;48.504;9.224;2023-05-07T11:26:47;24.30;63.20
3256;DHT22;1640;48.504;9.224;2023-05-07T11:29:18;24.30;67.80
3256;DHT22;1640;48.504;9.224;2023-05-07T11:31:49;24.30;68.80
3256;DHT22;1640;48.504;9.224;2023-05-07T11:34:21;24.30;69.50
3256;DHT22;1640;48.504;9.224;2023-05-07T11:36:50;24.10;70.00
3256;DHT22;1640;48.504;9.224;2023-05-07T11:39:24;23.80;65.90
3256;DHT22;1640;48.504;9.224;2023-05-07T11:41:52;23.40;63.30
3256;DHT22;1640;48.504;9.224;2023-05-07T11:44:21;23.20;61.10
3256;DHT22;1640;48.504;9.224;2023-05-07T11:46:48;23.10;55.90
3256;DHT22;1640;48.504;9.224;2023-05-07T11:49:17;23.00;59.00
3256;DHT22;1640;48.504;9.224;2023-05-07T11:51:44;22.70;53.50
3256;DHT22;1640;48.504;9.224;2023-05-07T11:54:16;22.40;49.00
3256;DHT22;1640;48.504;9.224;2023-05-07T11:56:44;22.30;36.90
3256;DHT22;1640;48.504;9.224;2023-05-07T11:59:17;22.30;27.00
3256;DHT22;1640;48.504;9.224;2023-05-07T12:01:47;22.10;35.40
3256;DHT22;1640;48.504;9.224;2023-05-07T12:04:19;21.90;23.20
3256;DHT22;1640;48.504;9.224;2023-05-07T12:06:47;21.90;23.50
3256;DHT22;1640;48.504;9.224;2023-05-07T12:09:17;21.70;30.30
3256;DHT22;1640;48.504;9.224;2023-05-07T12:11:46;21.60;30.70
3256;DHT22;1640;48.504;9.224;2023-05-07T12:14:13;21.50;35.00
3256;DHT22;1640;48.504;9.224;2023-05-07T12:16:42;21.40;33.30
3256;DHT22;1640;48.504;9.224;2023-05-07T12:19:11;21.30;33.30
3256;DHT22;1640;48.504;9.224;2023-05-07T12:21:39;21.20;40.90
3256;DHT22;1640;48.504;9.224;2023-05-07T12:24:08;21.00;36.60
3256;DHT22;1640;48.504;9.224;2023-05-07T12:26:38;20.80;39.00
3256;DHT22;1640;48.504;9.224;2023-05-07T12:29:06;20.70;32.80
3256;DHT22;1640;48.504;9.224;2023-05-07T12:31:34;20.60;39.20
3256;DHT22;1640;48.504;9.224;2023-05-07T12:34:02;20.50;33.30
3256;DHT22;1640;48.504;9.224;2023-05-07T12:36:38;20.40;30.10
3256;DHT22;1640;48.504;9.224;2023-05-07T12:39:06;20.30;31.40
3256;DHT22;1640;48.504;9.224;2023-05-07T12:41:36;20.20;22.40
3256;DHT22;1640;48.504;9.224;2023-05-07T12:44:19;20.00;11.80
3256;DHT22;1640;48.504;9.224;2023-05-07T12:46:48;19.80;13.40
3256;DHT22;1640;48.504;9.224;2023-05-07T12:49:16;19.60;9.50
3256;DHT22;1640;48.504;9.224;2023-05-07T12:51:46;19.70;99.90
3256;DHT22;1640;48.504;9.224;2023-05-07T12:54:14;19.70;99.90
3256;DHT22;1640;48.504;9.224;2023-05-07T12:57:01;19.60;99.90
3256;DHT22;1640;48.504;9.224;2023-05-07T12:59:33;19.50;99.90
3256;DHT22;1640;48.504;9.224;2023-05-07T13:02:00;19.50;99.90
3256;DHT22;1640;48.504;9.224;2023-05-07T13:04:28;19.50;99.90
3256;DHT22;1640;48.504;9.224;2023-05-07T13:06:57;19.50;99.90
3256;DHT22;1640;48.504;9.224;2023-05-07T13:09:25;19.50;99.90
3256;DHT22;1640;48.504;9.224;2023-05-07T13:11:52;19.40;99.90
3256;DHT22;1640;48.504;9.224;2023-05-07T13:14:20;19.20;10.10
3256;DHT22;1640;48.504;9.224;2023-05-07T13:16:48;18.80;6.90
3256;DHT22;1640;48.504;9.224;2023-05-07T13:19:15;18.50;12.00
3256;DHT22;1640;48.504;9.224;2023-05-07T13:21:43;18.20;99.90
3256;DHT22;1640;48.504;9.224;2023-05-07T13:24:12;17.80;6.10
3256;DHT22;1640;48.504;9.224;2023-05-07T13:26:39;17.30;99.90
3256;DHT22;1640;48.504;9.224;2023-05-07T13:29:07;17.00;99.90
3256;DHT22;1640;48.504;9.224;2023-05-07T13:31:34;16.70;99.90
3256;DHT22;1640;48.504;9.224;2023-05-07T13:34:02;16.50;99.90
3256;DHT22;1640;48.504;9.224;2023-05-07T13:36:30;16.30;99.90
3256;DHT22;1640;48.504;9.224;2023-05-07T13:38:59;16.20;99.90
3256;DHT22;1640;48.504;9.224;2023-05-07T13:41:28;16.10;99.90
3256;DHT22;1640;48.504;9.224;2023-05-07T13:43:55;15.90;99.90
3256;DHT22;1640;48.504;9.224;2023-05-07T13:46:23;15.80;99.90
3256;DHT22;1640;48.504;9.224;2023-05-07T13:48:50;15.80;99.90
3256;DHT22;1640;48.504;9.224;2023-05-07T13:51:18;15.70;99.90
3256;DHT22;1640;48.504;9.224;2023-05-07T13:53:45;15.70;99.90
3256;DHT22;1640;48.504;9.224;2023-05-07T13:56:13;15.70;99.90
3256;DHT22;1640;48.504;9.224;2023-05-07T13:58:42;15.70;99.90
3256;DHT22;1640;48.504;9.224;2023-05-07T14:01:10;15.60;99.90
3256;DHT22;1640;48.504;9.224;2023-05-07T14:03:37;15.60;99.90
3256;DHT22;1640;48.504;9.224;2023-05-07T14:06:06;15.70;99.90
3256;DHT22;1640;48.504;9.224;2023-05-07T14:08:33;15.70;99.90
3256;DHT22;1640;48.504;9.224;2023-05-07T14:11:01;15.70;99.90
3256;DHT22;1640;48.504;9.224;2023-05-07T14:13:28;15.50;99.90
3256;DHT22;1640;48.504;9.224;2023-05-07T14:15:58;15.50;99.90
3256;DHT22;1640;48.504;9.224;2023-05-07T14:18:25;15.50;99.90
3256;DHT22;1640;48.504;9.224;2023-05-07T14:20:54;15.50;99.90
3256;DHT22;1640;48.504;9.224;2023-05-07T14:23:22;15.50;99.90
3256;DHT22;1640;48.504;9.224;2023-05-07T14:25:52;15.60;99.90
3256;DHT22;1640;48.504;9.224;2023-05-07T14:28:20;15.70;99.90
3256;DHT22;1640;48.504;9.224;2023-05-07T14:30:47;15.70;99.90
3256;DHT22;1640;48.504;9.224;2023-05-07T14:33:17;15.80;99.90
3256;DHT22;1640;48.504;9.224;2023-05-07T14:35:44;15.90;99.90
3256;DHT22;1640;48.504;9.224;2023-05-07T14:38:14;15.90;99.90
3256;DHT22;1640;48.504;9.224;2023-05-07T14:40:42;16.00;99.90
3256;DHT22;1640;48.504;9.224;2023-05-07T14:43:09;16.10;99.90
3256;DHT22;1640;48.504;9.224;2023-05-07T14:45:37;16.00;99.90
3256;DHT22;1640;48.504;9.224;2023-05-07T14:48:05;16.00;99.90
3256;DHT22;1640;48.504;9.224;2023-05-07T14:50:33;16.00;99.90
3256;DHT22;1640;48.504;9.224;2023-05-07T14:53:01;16.30;99.90
3256;DHT22;1640;48.504;9.224;2023-05-07T14:55:29;16.40;99.90
3256;DHT22;1640;48.504;9.224;2023-05-07T14:57:57;16.50;99.90
3256;DHT22;1640;48.504;9.224;2023-05-07T15:00:25;16.60;99.90
3256;DHT22;1640;48.504;9.224;2023-05-07T15:02:52;16.70;99.90
3256;DHT22;1640;48.504;9.224;2023-05-07T15:05:20;16.80;99.90
3256;DHT22;1640;48.504;9.224;2023-05-07T15:07:49;17.00;99.90
3256;DHT22;1640;48.504;9.224;2023-05-07T15:10:16;17.20;99.90
3256;DHT22;1640;48.504;9.224;2023-05-07T15:12:44;17.40;99.90
3256;DHT22;1640;48.504;9.224;2023-05-07T15:15:11;17.50;99.90
3256;DHT22;1640;48.504;9.224;2023-05-07T15:17:39;17.70;99.90
3256;DHT22;1640;48.504;9.224;2023-05-07T15:20:08;17.80;99.90
3256;DHT22;1640;48.504;9.224;2023-05-07T15:22:36;18.00;99.90
3256;DHT22;1640;48.504;9.224;2023-05-07T15:25:05;18.20;99.90
3256;DHT22;1640;48.504;9.224;2023-05-07T15:27:33;18.70;99.90
3256;DHT22;1640;48.504;9.224;2023-05-07T15:30:01;18.90;99.90
3256;DHT22;1640;48.504;9.224;2023-05-07T15:32:32;19.10;3.90
3256;DHT22;1640;48.504;9.224;2023-05-07T15:34:59;19.10;7.60
3256;DHT22;1640;48.504;9.224;2023-05-07T15:37:27;19.20;6.10
3256;DHT22;1640;48.504;9.224;2023-05-07T15:39:54;19.30;0.50
3256;DHT22;1640;48.504;9.224;2023-05-07T15:42:23;19.50;8.80
3256;DHT22;1640;48.504;9.224;2023-05-07T15:44:51;19.60;17.60
3256;DHT22;1640;48.504;9.224;2023-05-07T15:47:18;19.80;21.00
3256;DHT22;1640;48.504;9.224;2023-05-07T15:49:47;19.90;23.20
3256;DHT22;1640;48.504;9.224;2023-05-07T15:52:14;19.90;26.60
3256;DHT22;1640;48.504;9.224;2023-05-07T15:54:42;19.90;21.00
3256;DHT22;1640;48.504;9.224;2023-05-07T15:57:10;19.80;13.80
3256;DHT22;1640;48.504;9.224;2023-05-07T15:59:39;19.70;1.20
3256;DHT22;1640;48.504;9.224;2023-05-07T16:02:07;19.80;3.20
3256;DHT22;1640;48.504;9.224;2023-05-07T16:04:35;19.90;99.90
3256;DHT22;1640;48.504;9.224;2023-05-07T16:07:02;19.70;1.40
3256;DHT22;1640;48.504;9.224;2023-05-07T16:09:30;19.60;99.90
3256;DHT22;1640;48.504;9.224;2023-05-07T16:11:58;19.50;17.70
3256;DHT22;1640;48.504;9.224;2023-05-07T16:14:26;19.30;17.50